Time;durP1;ratioP1;P1;durP2;ratioP2;P2;SDS_P1;SDS_P2;PMS_P1;PMS_P2;Temp;Humidity;BMP_temperature;BMP_pressure;BME280_temperature;BME280_humidity;BME280_pressure;Samples;Min_cycle;Max_cycle;Signal;HPM_P1;HPM_P2
2021/03/18 00:01:58;;;;;;;4.93;3.87;;;-0.30;99.90;;;;;;5027090;28;20179;-69
2021/03/18 00:04:24;;;;;;;11.10;6.80;;;-0.30;99.90;;;;;;5023488;28;20202;-68
2021/03/18 00:06:50;;;;;;;6.47;4.47;;;-0.30;99.90;;;;;;5024642;28;20178;-70
2021/03/18 00:09:19;;;;;;;8.33;4.53;;;-0.30;99.90;;;;;;5031772;28;20573;-68
2021/03/18 00:11:47;;;;;;;8.93;5.83;;;-0.20;99.90;;;;;;5034768;28;20179;-66
2021/03/18 00:14:17;;;;;;;7.23;5.87;;;-0.30;99.90;;;;;;5025352;28;20676;-67
2021/03/18 00:16:44;;;;;;;10.17;5.30;;;-0.30;99.90;;;;;;5026031;28;20667;-69
2021/03/18 00:19:10;;;;;;;7.83;5.30;;;-0.40;99.90;;;;;;5030906;28;20190;-66
2021/03/18 00:21:36;;;;;;;6.27;3.93;;;-0.40;99.90;;;;;;5024798;28;20190;-66
2021/03/18 00:24:01;;;;;;;7.60;4.33;;;-0.40;99.90;;;;;;5024343;28;20261;-69
2021/03/18 00:26:29;;;;;;;6.47;5.50;;;-0.40;99.90;;;;;;5024277;28;20238;-69
2021/03/18 00:28:55;;;;;;;6.23;4.50;;;-0.40;99.90;;;;;;5027535;28;20226;-68
2021/03/18 00:31:23;;;;;;;4.70;3.77;;;-0.50;99.90;;;;;;5026453;28;20187;-67
2021/03/18 00:33:49;;;;;;;5.97;4.47;;;-0.50;99.90;;;;;;5031672;28;20665;-69
2021/03/18 00:36:15;;;;;;;5.33;3.27;;;-0.50;99.90;;;;;;5028754;28;20186;-69
2021/03/18 00:38:41;;;;;;;4.47;3.47;;;-0.50;99.90;;;;;;5027251;28;20193;-68
2021/03/18 00:41:08;;;;;;;5.50;3.60;;;-0.50;99.90;;;;;;5027814;28;20646;-68
2021/03/18 00:43:34;;;;;;;7.77;4.83;;;-0.50;99.90;;;;;;5023033;28;20740;-67
2021/03/18 00:46:00;;;;;;;5.13;3.77;;;-0.50;99.90;;;;;;5024594;28;20314;-71
2021/03/18 00:48:26;;;;;;;5.33;3.90;;;-0.50;99.90;;;;;;5022937;28;20216;-70
2021/03/18 00:50:57;;;;;;;5.47;3.43;;;-0.50;99.90;;;;;;5021428;28;20274;-67
2021/03/18 00:53:26;;;;;;;4.27;3.67;;;-0.50;99.90;;;;;;5024316;28;20215;-68
2021/03/18 00:55:53;;;;;;;3.53;2.97;;;-0.70;99.90;;;;;;5032077;28;20183;-72
2021/03/18 00:58:20;;;;;;;3.63;2.77;;;-0.60;99.90;;;;;;5036009;28;20744;-68
2021/03/18 01:00:55;;;;;;;5.03;2.77;;;-0.70;99.90;;;;;;5034279;28;20736;-70
2021/03/18 01:03:22;;;;;;;3.10;2.80;;;-0.70;99.90;;;;;;5035776;28;20206;-68
2021/03/18 01:05:50;;;;;;;3.60;2.87;;;-0.80;99.90;;;;;;5026719;28;20193;-70
2021/03/18 01:08:18;;;;;;;3.67;2.33;;;-0.80;99.90;;;;;;5026338;28;20206;-70
2021/03/18 01:10:50;;;;;;;2.30;2.10;;;-0.80;99.90;;;;;;5037394;28;20183;-70
2021/03/18 01:13:19;;;;;;;4.63;3.23;;;-0.80;99.90;;;;;;5024814;28;20604;-69
2021/03/18 01:16:11;;;;;;;2.57;2.33;;;-0.90;99.90;;;;;;5025049;28;20179;-69
2021/03/18 01:18:47;;;;;;;2.70;2.50;;;-0.80;99.90;;;;;;5027736;28;20202;-69
2021/03/18 01:21:14;;;;;;;2.37;2.10;;;-0.80;99.90;;;;;;5025794;28;20183;-71
2021/03/18 01:23:40;;;;;;;2.87;2.60;;;-0.80;99.90;;;;;;5026275;28;20215;-70
2021/03/18 01:26:07;;;;;;;2.67;2.20;;;-0.70;99.90;;;;;;5026206;28;20233;-71
2021/03/18 01:28:34;;;;;;;2.27;2.07;;;-0.50;99.90;;;;;;5025816;28;20300;-68
2021/03/18 01:31:02;;;;;;;2.20;2.00;;;-0.60;99.90;;;;;;5029583;28;20532;-67
2021/03/18 01:33:28;;;;;;;4.27;2.60;;;-0.70;99.90;;;;;;5025856;28;20211;-68
2021/03/18 01:35:54;;;;;;;3.40;2.60;;;-0.80;99.90;;;;;;5025882;28;20175;-66
2021/03/18 01:38:20;;;;;;;2.23;2.03;;;-0.90;99.90;;;;;;5027452;28;20183;-70
2021/03/18 01:40:46;;;;;;;2.90;2.07;;;-0.90;99.90;;;;;;5025583;28;20183;-67
2021/03/18 01:43:11;;;;;;;2.00;1.77;;;-1.00;99.90;;;;;;5027857;28;20182;-67
2021/03/18 01:45:37;;;;;;;2.60;2.03;;;-1.00;99.90;;;;;;5025886;28;20285;-68
2021/03/18 01:48:04;;;;;;;2.10;1.97;;;-0.90;99.90;;;;;;5030891;28;20210;-70
2021/03/18 01:50:32;;;;;;;2.70;2.40;;;-0.90;99.90;;;;;;5025069;28;20183;-69
2021/03/18 01:52:58;;;;;;;4.33;3.47;;;-0.80;99.90;;;;;;5029319;28;20543;-67
2021/03/18 01:55:30;;;;;;;3.47;2.87;;;-0.90;99.90;;;;;;5025917;28;20658;-67
2021/03/18 01:57:56;;;;;;;3.43;3.13;;;-0.90;99.90;;;;;;5025308;28;20475;-70
2021/03/18 02:00:25;;;;;;;4.87;3.57;;;-1.00;99.90;;;;;;5027126;28;20221;-70
2021/03/18 02:02:51;;;;;;;4.57;3.13;;;-1.00;99.90;;;;;;5025452;28;20187;-67
2021/03/18 02:05:17;;;;;;;4.37;3.40;;;-1.00;99.90;;;;;;5026929;28;20206;-69
2021/03/18 02:07:43;;;;;;;5.37;3.47;;;-0.90;99.90;;;;;;5031747;28;20199;-68
2021/03/18 02:10:10;;;;;;;5.47;3.80;;;-1.00;99.90;;;;;;5025030;28;20185;-67
2021/03/18 02:12:36;;;;;;;5.17;3.30;;;-1.10;99.90;;;;;;5024122;28;20265;-71
2021/03/18 02:15:06;;;;;;;4.90;3.30;;;-1.10;99.90;;;;;;5037834;28;20304;-69
2021/03/18 02:17:53;;;;;;;4.83;3.20;;;-1.10;99.90;;;;;;5030366;28;20510;-69
2021/03/18 02:20:47;;;;;;;3.87;3.17;;;-0.90;99.90;;;;;;5026510;28;20257;-68
2021/03/18 02:23:44;;;;;;;2.57;2.37;;;-0.90;99.90;;;;;;5024812;28;20237;-68
2021/03/18 02:26:38;;;;;;;3.40;2.60;;;-0.60;99.90;;;;;;5057650;28;20183;-67
2021/03/18 02:29:27;;;;;;;4.67;3.17;;;-0.70;99.90;;;;;;5024527;28;20210;-67
2021/03/18 02:32:02;;;;;;;3.37;2.60;;;-0.70;99.90;;;;;;5024441;28;20175;-68
2021/03/18 02:34:27;;;;;;;2.87;2.50;;;-0.80;99.90;;;;;;5029113;28;20194;-70
2021/03/18 02:37:05;;;;;;;4.13;3.07;;;-0.80;99.90;;;;;;5023737;28;20193;-69
2021/03/18 02:40:03;;;;;;;3.03;2.60;;;-0.90;99.90;;;;;;5025546;28;20186;-67
2021/03/18 02:42:33;;;;;;;2.90;2.67;;;-0.90;99.90;;;;;;5023344;28;20589;-67
2021/03/18 02:45:01;;;;;;;3.93;2.80;;;-1.00;99.90;;;;;;5032260;28;20228;-67
2021/03/18 02:47:30;;;;;;;3.17;2.67;;;-1.00;99.90;;;;;;5032614;28;20198;-69
2021/03/18 02:49:58;;;;;;;4.50;3.50;;;-1.10;99.90;;;;;;5022724;28;20274;-70
2021/03/18 02:52:28;;;;;;;3.03;2.77;;;-1.10;99.90;;;;;;5025989;28;20214;-68
2021/03/18 02:54:57;;;;;;;3.43;2.53;;;-1.10;99.90;;;;;;5022654;28;20553;-70
2021/03/18 02:57:25;;;;;;;4.20;3.00;;;-1.10;99.90;;;;;;5026887;28;20193;-69
2021/03/18 02:59:53;;;;;;;4.87;3.57;;;-1.10;99.90;;;;;;5026359;28;20206;-68
2021/03/18 03:02:24;;;;;;;3.57;3.27;;;-1.00;99.90;;;;;;5023565;28;20180;-70
2021/03/18 03:04:52;;;;;;;3.47;2.83;;;-1.10;99.90;;;;;;5023620;28;20552;-67
2021/03/18 03:07:18;;;;;;;3.37;2.90;;;-1.00;99.90;;;;;;5024351;28;20728;-67
2021/03/18 03:09:46;;;;;;;3.60;3.20;;;-1.00;99.90;;;;;;5035760;28;20542;-68
2021/03/18 03:12:14;;;;;;;4.27;3.33;;;-1.10;99.90;;;;;;5026139;28;20237;-67
2021/03/18 03:14:42;;;;;;;3.07;2.57;;;-1.10;99.90;;;;;;5023510;28;20292;-67
2021/03/18 03:17:09;;;;;;;3.17;2.43;;;-1.00;99.90;;;;;;5022085;28;20324;-68
2021/03/18 03:19:40;;;;;;;6.23;4.10;;;-1.00;99.90;;;;;;5023893;28;20648;-67
2021/03/18 03:22:07;;;;;;;3.53;2.87;;;-1.10;99.90;;;;;;5022648;28;20229;-67
2021/03/18 03:24:34;;;;;;;4.27;3.87;;;-1.10;99.90;;;;;;5032543;28;20739;-67
2021/03/18 03:27:01;;;;;;;3.47;3.00;;;-1.10;99.90;;;;;;5028127;28;20179;-67
2021/03/18 03:29:28;;;;;;;3.27;2.37;;;-1.00;99.90;;;;;;5022035;28;20203;-66
2021/03/18 03:31:55;;;;;;;5.30;3.97;;;-1.10;99.90;;;;;;5023299;28;20694;-69
2021/03/18 03:34:20;;;;;;;3.97;2.90;;;-1.10;99.90;;;;;;5025217;28;20195;-69
2021/03/18 03:36:47;;;;;;;4.07;3.43;;;-1.20;99.90;;;;;;5030002;28;20228;-68
2021/03/18 03:39:14;;;;;;;3.63;3.33;;;-1.10;99.90;;;;;;5023176;28;20212;-70
2021/03/18 03:41:40;;;;;;;5.17;3.83;;;-1.20;99.90;;;;;;5026762;28;20733;-69
2021/03/18 03:44:07;;;;;;;4.93;3.93;;;-1.10;99.90;;;;;;5029608;28;20211;-67
2021/03/18 03:46:34;;;;;;;5.37;4.30;;;-1.20;99.90;;;;;;5023137;28;20244;-67
2021/03/18 03:49:00;;;;;;;3.70;2.60;;;-1.30;99.90;;;;;;5022889;28;20644;-69
2021/03/18 03:51:58;;;;;;;3.87;3.43;;;-1.30;99.90;;;;;;5027614;28;20186;-69
2021/03/18 03:54:24;;;;;;;4.27;3.23;;;-1.30;99.90;;;;;;5021456;28;20739;-68
2021/03/18 03:57:01;;;;;;;4.63;3.70;;;-1.40;99.90;;;;;;5022047;28;20705;-68
2021/03/18 03:59:30;;;;;;;4.30;2.63;;;-1.40;99.90;;;;;;5023305;28;20193;-68
2021/03/18 04:01:57;;;;;;;5.67;4.17;;;-1.30;99.90;;;;;;5022697;28;20189;-70
2021/03/18 04:04:25;;;;;;;5.07;3.80;;;-1.40;99.90;;;;;;5033062;28;20210;-67
2021/03/18 04:07:04;;;;;;;4.87;3.63;;;-1.40;99.90;;;;;;5023253;28;20182;-66
2021/03/18 04:09:31;;;;;;;4.10;3.13;;;-1.50;99.90;;;;;;5025087;28;20237;-68
2021/03/18 04:11:58;;;;;;;5.10;4.10;;;-1.50;99.90;;;;;;5022503;28;20183;-69
2021/03/18 04:14:28;;;;;;;4.07;3.30;;;-1.40;99.90;;;;;;5022862;28;20210;-67
2021/03/18 04:16:57;;;;;;;5.07;4.20;;;-1.50;99.90;;;;;;5023296;28;20253;-68
2021/03/18 04:19:24;;;;;;;4.67;3.87;;;-1.50;99.90;;;;;;5023123;28;20209;-69
2021/03/18 04:21:53;;;;;;;3.57;2.93;;;-1.50;99.90;;;;;;5020924;28;20236;-69
2021/03/18 04:24:22;;;;;;;3.63;3.23;;;-1.50;99.90;;;;;;5022406;28;20209;-70
2021/03/18 04:26:49;;;;;;;4.73;4.10;;;-1.50;99.90;;;;;;5025628;28;20244;-67
2021/03/18 04:29:16;;;;;;;5.57;4.47;;;-1.50;99.90;;;;;;5021965;28;20215;-69
2021/03/18 04:31:42;;;;;;;5.90;3.70;;;-1.40;99.90;;;;;;5022230;28;20185;-69
2021/03/18 04:34:10;;;;;;;6.83;3.67;;;-1.40;99.90;;;;;;5026875;28;20237;-66
2021/03/18 04:36:37;;;;;;;4.90;3.60;;;-1.40;99.90;;;;;;5027244;28;20194;-70
2021/03/18 04:39:05;;;;;;;5.37;4.03;;;-1.40;99.90;;;;;;5026572;28;20550;-69
2021/03/18 04:41:31;;;;;;;6.37;5.00;;;-1.40;99.90;;;;;;5025952;28;20186;-67
2021/03/18 04:43:57;;;;;;;5.43;3.93;;;-1.50;99.90;;;;;;5032799;28;20890;-68
2021/03/18 04:46:27;;;;;;;4.40;4.00;;;-1.60;99.90;;;;;;5026612;28;20603;-70
2021/03/18 04:48:55;;;;;;;5.07;4.07;;;-1.60;99.90;;;;;;5026490;28;20198;-67
2021/03/18 04:51:21;;;;;;;5.03;3.83;;;-1.60;99.90;;;;;;5025941;28;20614;-68
2021/03/18 04:53:47;;;;;;;4.60;3.33;;;-1.70;99.90;;;;;;5026756;28;20229;-70
2021/03/18 04:56:13;;;;;;;6.87;4.10;;;-1.70;99.90;;;;;;5026524;28;20241;-69
2021/03/18 04:58:40;;;;;;;4.13;3.73;;;-1.60;99.90;;;;;;5026758;28;20191;-71
2021/03/18 05:01:07;;;;;;;4.70;3.87;;;-1.70;99.90;;;;;;5027378;28;20215;-69
2021/03/18 05:03:34;;;;;;;7.33;4.43;;;-1.60;99.90;;;;;;5031390;28;20207;-70
2021/03/18 05:06:03;;;;;;;5.23;4.43;;;-1.60;99.90;;;;;;5026119;28;20195;-67
2021/03/18 05:08:30;;;;;;;4.27;3.87;;;-1.70;99.90;;;;;;5028041;28;20211;-68
2021/03/18 05:10:56;;;;;;;7.73;5.00;;;-1.70;99.90;;;;;;5028552;28;20547;-67
2021/03/18 05:13:25;;;;;;;8.67;6.13;;;-1.60;99.90;;;;;;5026272;28;20209;-69
2021/03/18 05:15:51;;;;;;;9.33;5.90;;;-1.60;99.90;;;;;;5026115;28;20187;-69
2021/03/18 05:18:18;;;;;;;8.60;6.80;;;-1.60;99.90;;;;;;5026611;28;20171;-69
2021/03/18 05:20:46;;;;;;;10.93;7.77;;;-1.60;99.90;;;;;;5025644;28;20202;-69
2021/03/18 05:23:14;;;;;;;12.07;7.63;;;-1.60;99.90;;;;;;5026213;28;20183;-67
2021/03/18 05:25:40;;;;;;;9.27;6.97;;;-1.50;99.90;;;;;;5026026;28;20214;-69
2021/03/18 05:28:07;;;;;;;9.87;7.37;;;-1.50;99.90;;;;;;5026619;28;20619;-68
2021/03/18 05:30:33;;;;;;;10.33;7.10;;;-1.50;99.90;;;;;;5028008;28;20183;-66
2021/03/18 05:33:00;;;;;;;8.20;6.27;;;-1.50;99.90;;;;;;5031309;28;20190;-70
2021/03/18 05:35:26;;;;;;;4.47;4.07;;;-1.60;99.90;;;;;;5032675;28;20249;-67
2021/03/18 05:37:51;;;;;;;7.80;5.20;;;-1.50;99.90;;;;;;5032534;28;20642;-70
2021/03/18 05:40:17;;;;;;;5.83;5.10;;;-1.50;99.90;;;;;;5024979;28;20270;-70
2021/03/18 05:42:43;;;;;;;5.67;4.43;;;-1.50;99.90;;;;;;5032981;28;20187;-69
2021/03/18 05:45:11;;;;;;;6.27;4.83;;;-1.50;99.90;;;;;;5038549;28;20283;-67
2021/03/18 05:47:37;;;;;;;7.33;5.37;;;-1.50;99.90;;;;;;5027304;28;20260;-70
2021/03/18 05:50:07;;;;;;;7.17;4.90;;;-1.50;99.90;;;;;;5027068;28;20563;-68
2021/03/18 05:52:34;;;;;;;9.20;5.60;;;-1.50;99.90;;;;;;5026805;28;20175;-67
2021/03/18 05:55:01;;;;;;;5.57;4.10;;;-1.40;99.90;;;;;;5039837;28;20206;-69
2021/03/18 05:57:27;;;;;;;7.23;6.07;;;-1.40;99.90;;;;;;5032792;28;20649;-68
2021/03/18 05:59:54;;;;;;;6.00;5.10;;;-1.40;99.90;;;;;;5030356;28;20284;-70
2021/03/18 06:02:19;;;;;;;6.03;4.70;;;-1.30;99.90;;;;;;5030009;28;20198;-70
2021/03/18 06:04:47;;;;;;;8.93;4.57;;;-1.30;99.90;;;;;;5026051;28;20678;-69
2021/03/18 06:07:13;;;;;;;5.17;4.53;;;-1.30;99.90;;;;;;5035952;28;20528;-68
2021/03/18 06:09:38;;;;;;;5.47;4.77;;;-1.10;99.90;;;;;;5031504;28;20233;-70
2021/03/18 06:12:05;;;;;;;6.37;5.10;;;-0.90;99.90;;;;;;5033221;28;20551;-68
2021/03/18 06:14:31;;;;;;;6.63;4.57;;;-0.90;99.90;;;;;;5035240;28;20219;-70
2021/03/18 06:16:57;;;;;;;9.00;7.27;;;-0.70;99.90;;;;;;5031171;28;20193;-70
2021/03/18 06:19:23;;;;;;;9.10;6.00;;;-0.90;99.90;;;;;;5025658;28;20226;-71
2021/03/18 06:21:52;;;;;;;6.63;4.27;;;-0.80;99.90;;;;;;5029902;28;20268;-70
2021/03/18 06:24:22;;;;;;;6.83;4.83;;;-0.70;99.90;;;;;;5027896;28;20242;-69
2021/03/18 06:26:48;;;;;;;7.27;5.57;;;-0.70;99.90;;;;;;5025835;28;20519;-70
2021/03/18 06:29:38;;;;;;;6.60;5.37;;;-0.50;99.90;;;;;;5027752;28;20206;-68
2021/03/18 06:32:12;;;;;;;7.43;6.17;;;-0.50;99.90;;;;;;5028420;28;20666;-70
2021/03/18 06:34:41;;;;;;;6.93;5.13;;;-0.40;99.90;;;;;;5033428;28;20568;-68
2021/03/18 06:37:33;;;;;;;6.40;5.77;;;-0.30;99.90;;;;;;5026865;28;20175;-70
2021/03/18 06:40:05;;;;;;;7.70;5.33;;;-0.30;99.90;;;;;;5027964;28;20197;-70
2021/03/18 06:42:31;;;;;;;8.27;6.47;;;-0.20;99.90;;;;;;5031533;28;20191;-67
2021/03/18 06:45:13;;;;;;;8.90;6.63;;;0.00;99.90;;;;;;5027491;28;20693;-67
2021/03/18 06:47:48;;;;;;;9.73;6.97;;;0.20;99.90;;;;;;5027113;28;20268;-70
2021/03/18 06:50:18;;;;;;;13.47;6.33;;;0.30;99.90;;;;;;5025031;28;20213;-68
2021/03/18 06:52:44;;;;;;;8.23;6.20;;;0.50;99.90;;;;;;5025564;28;20187;-70
2021/03/18 06:55:13;;;;;;;9.67;6.60;;;0.50;99.90;;;;;;5024299;28;20261;-68
2021/03/18 06:57:39;;;;;;;9.63;7.23;;;0.60;99.90;;;;;;5025964;28;20182;-68
2021/03/18 07:00:08;;;;;;;8.23;6.63;;;0.70;99.90;;;;;;5024360;28;20182;-68
2021/03/18 07:02:41;;;;;;;11.33;7.03;;;0.80;99.90;;;;;;5023583;28;20183;-68
2021/03/18 07:05:19;;;;;;;10.53;6.97;;;1.00;99.90;;;;;;5023929;28;20202;-71
2021/03/18 07:07:50;;;;;;;10.23;7.50;;;1.10;99.90;;;;;;5024274;28;20206;-69
2021/03/18 07:10:30;;;;;;;7.97;5.70;;;1.10;99.90;;;;;;5023954;28;20692;-70
2021/03/18 07:13:17;;;;;;;5.87;5.30;;;1.20;99.90;;;;;;5031596;28;20182;-70
2021/03/18 07:15:43;;;;;;;7.47;4.57;;;1.30;99.90;;;;;;5054699;28;20182;-69
2021/03/18 07:18:12;;;;;;;8.60;5.93;;;1.40;99.90;;;;;;5024644;28;20254;-68
2021/03/18 07:20:38;;;;;;;7.47;6.17;;;1.50;99.90;;;;;;5027483;28;20191;-69
2021/03/18 07:23:16;;;;;;;8.13;6.33;;;1.60;99.90;;;;;;5023424;28;20187;-68
2021/03/18 07:25:47;;;;;;;8.20;6.20;;;1.70;99.90;;;;;;5023834;28;20190;-72
2021/03/18 07:28:16;;;;;;;9.50;6.93;;;1.70;99.90;;;;;;5026889;28;20559;-69
2021/03/18 07:30:42;;;;;;;8.80;6.93;;;1.80;99.90;;;;;;5023620;28;20646;-69
2021/03/18 07:33:08;;;;;;;8.70;6.13;;;2.00;99.90;;;;;;5032757;28;20183;-70
2021/03/18 07:35:35;;;;;;;10.43;6.60;;;2.00;99.90;;;;;;5023436;28;20190;-69
2021/03/18 07:38:03;;;;;;;9.10;6.47;;;2.10;99.90;;;;;;5031025;28;20188;-69
2021/03/18 07:40:29;;;;;;;8.13;6.20;;;2.10;99.90;;;;;;5029259;28;20203;-69
2021/03/18 07:42:56;;;;;;;9.27;6.80;;;2.20;99.90;;;;;;5024706;28;20705;-68
2021/03/18 07:45:24;;;;;;;8.00;6.47;;;2.30;99.90;;;;;;5025436;28;20530;-69
2021/03/18 07:47:50;;;;;;;8.83;6.13;;;2.30;99.90;;;;;;5027392;28;20224;-68
2021/03/18 07:50:19;;;;;;;7.17;5.77;;;2.40;99.90;;;;;;5027331;28;20179;-70
2021/03/18 07:52:48;;;;;;;9.77;6.57;;;2.60;99.90;;;;;;5032996;28;20547;-70
2021/03/18 07:55:19;;;;;;;12.33;5.97;;;2.70;99.90;;;;;;5022993;28;20309;-70
2021/03/18 07:57:50;;;;;;;6.90;5.87;;;2.80;99.90;;;;;;5028107;28;20178;-69
2021/03/18 08:00:21;;;;;;;8.57;6.30;;;2.90;99.90;;;;;;5029150;28;20891;-69
2021/03/18 08:02:47;;;;;;;8.77;6.20;;;3.00;99.90;;;;;;5061516;28;20187;-70
2021/03/18 08:05:39;;;;;;;7.87;5.83;;;3.10;99.90;;;;;;5031149;28;20206;-70
2021/03/18 08:08:06;;;;;;;9.20;6.07;;;3.40;99.90;;;;;;5026286;28;20203;-70
2021/03/18 08:10:32;;;;;;;7.60;6.33;;;3.50;99.90;;;;;;5023529;28;20724;-71
2021/03/18 08:12:59;;;;;;;7.03;5.43;;;3.60;99.90;;;;;;5029059;28;20183;-71
2021/03/18 08:15:32;;;;;;;7.93;6.37;;;3.60;99.90;;;;;;5022972;28;20236;-69
2021/03/18 08:18:21;;;;;;;9.73;6.47;;;3.50;99.90;;;;;;5023418;28;20186;-69
2021/03/18 08:20:49;;;;;;;10.20;6.53;;;3.30;99.90;;;;;;5025678;28;20195;-70
2021/03/18 08:23:27;;;;;;;9.90;6.93;;;3.40;99.90;;;;;;5023945;28;20707;-69
2021/03/18 08:25:54;;;;;;;10.43;6.83;;;3.60;99.90;;;;;;5025948;28;20546;-68
2021/03/18 08:28:46;;;;;;;7.17;5.23;;;3.60;99.90;;;;;;5027261;28;20593;-68
2021/03/18 08:31:20;;;;;;;6.77;5.20;;;3.60;99.90;;;;;;5026119;28;20170;-68
2021/03/18 08:33:57;;;;;;;7.50;5.83;;;3.80;99.90;;;;;;5025361;28;20202;-71
2021/03/18 08:36:26;;;;;;;6.70;4.77;;;4.10;99.90;;;;;;5022665;28;20614;-67
2021/03/18 08:39:08;;;;;;;5.83;5.10;;;4.20;99.90;;;;;;5023761;28;20222;-69
2021/03/18 08:41:40;;;;;;;9.50;6.40;;;4.40;99.90;;;;;;5022332;28;20237;-68
2021/03/18 08:44:15;;;;;;;8.10;5.60;;;4.50;99.90;;;;;;5023002;28;20211;-70
2021/03/18 08:46:51;;;;;;;6.63;5.03;;;4.50;99.90;;;;;;5025055;28;20216;-69
2021/03/18 08:49:17;;;;;;;8.90;5.47;;;4.70;99.90;;;;;;5022570;28;20214;-67
2021/03/18 08:51:44;;;;;;;7.03;5.20;;;4.70;99.90;;;;;;5021691;28;20209;-69
2021/03/18 08:54:30;;;;;;;7.43;5.07;;;4.70;99.90;;;;;;5022412;28;20211;-69
2021/03/18 08:56:56;;;;;;;8.37;6.17;;;4.90;99.90;;;;;;5032881;28;20182;-69
2021/03/18 08:59:22;;;;;;;6.40;4.70;;;5.10;99.90;;;;;;5025884;28;20567;-69
2021/03/18 09:01:48;;;;;;;3.93;3.30;;;5.20;99.90;;;;;;5032232;28;20193;-67
2021/03/18 09:04:13;;;;;;;6.07;4.27;;;5.30;99.90;;;;;;5033690;28;20309;-68
2021/03/18 09:06:46;;;;;;;5.60;4.40;;;5.30;99.90;;;;;;5023287;28;20195;-70
2021/03/18 09:09:19;;;;;;;6.43;4.63;;;5.30;99.90;;;;;;5034842;28;20209;-68
2021/03/18 09:11:45;;;;;;;6.87;4.70;;;5.30;99.90;;;;;;5027454;28;20244;-67
2021/03/18 09:14:17;;;;;;;6.93;4.40;;;5.10;99.90;;;;;;5053876;28;20769;-69
2021/03/18 09:16:43;;;;;;;6.73;4.97;;;5.30;99.90;;;;;;5020627;28;20179;-69
2021/03/18 09:19:09;;;;;;;7.20;4.73;;;5.50;99.90;;;;;;5036562;28;20241;-71
2021/03/18 09:21:40;;;;;;;7.83;5.27;;;5.50;99.90;;;;;;5024759;28;20652;-68
2021/03/18 09:24:09;;;;;;;6.27;5.03;;;5.40;99.90;;;;;;5030474;28;20203;-68
2021/03/18 09:26:35;;;;;;;5.50;4.57;;;5.50;99.90;;;;;;5027929;28;20963;-69
2021/03/18 09:29:00;;;;;;;5.93;3.93;;;5.80;99.90;;;;;;5032412;28;20559;-68
2021/03/18 09:31:26;;;;;;;5.83;4.23;;;5.90;99.90;;;;;;5036050;28;20186;-67
2021/03/18 09:33:54;;;;;;;6.63;4.47;;;5.80;99.90;;;;;;5034904;28;20612;-69
2021/03/18 09:36:30;;;;;;;6.67;5.00;;;5.40;99.90;;;;;;5026352;28;20281;-71
2021/03/18 09:39:06;;;;;;;5.73;4.17;;;5.50;99.90;;;;;;5032095;28;20255;-68
2021/03/18 09:41:38;;;;;;;6.53;5.00;;;5.60;99.90;;;;;;5033035;28;20182;-70
2021/03/18 09:44:10;;;;;;;5.83;5.13;;;5.50;99.90;;;;;;5028793;28;20249;-71
2021/03/18 09:46:37;;;;;;;6.07;4.63;;;5.40;99.90;;;;;;5025445;28;20194;-68
2021/03/18 09:49:04;;;;;;;5.70;4.03;;;5.50;99.90;;;;;;5033024;28;20207;-68
2021/03/18 09:51:35;;;;;;;4.63;3.70;;;5.60;99.90;;;;;;5025086;28;20183;-70
2021/03/18 09:54:05;;;;;;;5.10;3.50;;;5.60;99.90;;;;;;5029549;28;20273;-70
2021/03/18 09:56:58;;;;;;;4.77;3.77;;;5.80;99.90;;;;;;5027110;28;20274;-68
2021/03/18 09:59:24;;;;;;;4.17;3.70;;;6.10;99.90;;;;;;5040066;28;20653;-67
2021/03/18 10:01:50;;;;;;;5.63;4.33;;;5.90;99.90;;;;;;5025171;28;20780;-67
2021/03/18 10:04:19;;;;;;;4.77;4.13;;;5.40;99.90;;;;;;5027721;28;20570;-67
2021/03/18 10:06:52;;;;;;;5.77;4.27;;;5.30;99.90;;;;;;5028896;28;20194;-71
2021/03/18 10:09:32;;;;;;;4.53;3.53;;;5.40;99.90;;;;;;5028163;28;20579;-68
2021/03/18 10:12:02;;;;;;;6.77;4.43;;;5.30;99.90;;;;;;5027104;28;20243;-70
2021/03/18 10:15:02;;;;;;;6.27;4.00;;;5.20;99.90;;;;;;5028455;28;20297;-69
2021/03/18 10:17:31;;;;;;;5.87;3.80;;;5.30;99.90;;;;;;5024989;28;20634;-68
2021/03/18 10:20:03;;;;;;;5.33;4.20;;;5.50;99.90;;;;;;5025953;28;20185;-67
2021/03/18 10:22:32;;;;;;;4.13;3.13;;;5.30;99.90;;;;;;5026689;28;20650;-71
2021/03/18 10:25:24;;;;;;;4.87;3.53;;;5.40;99.90;;;;;;5031018;28;20609;-70
2021/03/18 10:27:52;;;;;;;4.23;3.17;;;5.50;99.90;;;;;;5024899;28;20202;-70
2021/03/18 10:30:22;;;;;;;6.30;3.97;;;5.70;99.90;;;;;;5035548;28;21154;-67
2021/03/18 10:33:09;;;;;;;4.10;3.60;;;5.70;99.90;;;;;;5025276;28;20187;-72
2021/03/18 10:35:41;;;;;;;7.83;4.63;;;5.70;99.90;;;;;;5026572;28;20179;-70
2021/03/18 10:38:10;;;;;;;6.27;4.47;;;5.70;99.90;;;;;;5022334;28;20252;-68
2021/03/18 10:40:46;;;;;;;5.33;3.93;;;5.80;99.90;;;;;;5024181;28;20236;-67
2021/03/18 10:43:21;;;;;;;4.83;3.23;;;5.90;99.90;;;;;;5023304;28;20656;-67
2021/03/18 10:45:48;;;;;;;4.50;3.17;;;5.70;99.90;;;;;;5029095;28;20228;-69
2021/03/18 10:48:19;;;;;;;5.17;4.00;;;5.60;99.90;;;;;;5026919;28;20294;-67
2021/03/18 10:50:45;;;;;;;7.03;4.27;;;5.60;99.90;;;;;;5023210;28;20178;-69
2021/03/18 10:53:11;;;;;;;4.77;3.60;;;6.00;99.90;;;;;;5034845;28;20178;-70
2021/03/18 10:55:44;;;;;;;5.93;3.83;;;6.10;99.90;;;;;;5030664;28;20175;-68
2021/03/18 10:58:16;;;;;;;4.70;3.47;;;6.00;99.90;;;;;;5032961;28;20186;-70
2021/03/18 11:00:42;;;;;;;8.10;4.10;;;5.70;99.90;;;;;;5018105;28;20603;-70
2021/03/18 11:03:11;;;;;;;5.00;4.00;;;5.70;99.90;;;;;;5022829;28;20187;-69
2021/03/18 11:05:49;;;;;;;5.23;3.60;;;5.90;99.90;;;;;;5023668;28;20264;-69
2021/03/18 11:08:16;;;;;;;5.47;3.73;;;6.00;99.90;;;;;;5021154;28;20206;-70
2021/03/18 11:10:45;;;;;;;5.57;4.17;;;5.80;99.90;;;;;;5021702;28;20183;-69
2021/03/18 11:13:17;;;;;;;5.17;4.40;;;5.80;99.90;;;;;;5026998;28;20232;-68
2021/03/18 11:15:44;;;;;;;6.57;4.27;;;5.70;99.90;;;;;;5030454;28;20638;-69
2021/03/18 11:18:10;;;;;;;6.97;4.80;;;5.70;99.90;;;;;;5029217;28;20210;-68
2021/03/18 11:20:38;;;;;;;4.27;3.23;;;5.50;99.90;;;;;;5019188;28;20187;-68
2021/03/18 11:23:04;;;;;;;6.50;4.43;;;5.50;99.90;;;;;;5024718;28;20210;-69
2021/03/18 11:25:30;;;;;;;7.23;5.13;;;5.50;99.90;;;;;;5021521;28;20187;-69
2021/03/18 11:27:56;;;;;;;6.77;5.03;;;5.50;99.90;;;;;;5059066;28;20214;-70
2021/03/18 11:30:36;;;;;;;6.27;4.33;;;5.60;99.90;;;;;;5026752;28;20178;-70
2021/03/18 11:33:22;;;;;;;6.47;4.53;;;5.30;99.90;;;;;;5020842;28;20183;-69
2021/03/18 11:35:50;;;;;;;5.97;3.93;;;5.00;99.90;;;;;;5031133;28;20173;-70
2021/03/18 11:38:17;;;;;;;6.43;4.20;;;4.90;99.90;;;;;;5021960;28;20312;-71
2021/03/18 11:40:44;;;;;;;6.33;4.50;;;4.90;99.90;;;;;;5020262;28;20189;-71
2021/03/18 11:43:10;;;;;;;5.07;3.77;;;4.70;99.90;;;;;;5020309;28;20193;-70
2021/03/18 11:45:36;;;;;;;4.97;3.53;;;4.80;99.90;;;;;;5021476;28;20190;-70
2021/03/18 11:48:03;;;;;;;7.30;4.10;;;4.60;99.90;;;;;;5017280;28;20241;-68
2021/03/18 11:50:29;;;;;;;7.10;4.73;;;4.80;99.90;;;;;;5019970;28;20202;-70
2021/03/18 11:52:55;;;;;;;5.63;4.10;;;5.10;99.90;;;;;;5026580;28;20220;-66
2021/03/18 11:55:23;;;;;;;7.23;4.27;;;5.20;99.90;;;;;;5026376;28;20190;-68
2021/03/18 11:57:56;;;;;;;4.77;3.97;;;5.10;99.90;;;;;;5025282;28;20303;-70
2021/03/18 12:00:24;;;;;;;5.43;3.77;;;5.20;99.90;;;;;;5030860;28;20182;-68
2021/03/18 12:02:50;;;;;;;6.63;5.07;;;5.30;99.90;;;;;;5028863;28;20210;-67
2021/03/18 12:05:16;;;;;;;5.90;4.83;;;5.50;99.90;;;;;;5025861;28;20686;-67
2021/03/18 12:07:41;;;;;;;6.20;4.07;;;5.40;99.90;;;;;;5022926;28;20193;-70
2021/03/18 12:10:07;;;;;;;7.00;4.87;;;5.40;99.90;;;;;;5021800;28;20183;-66
2021/03/18 12:12:33;;;;;;;5.90;4.50;;;5.60;99.90;;;;;;5021353;28;20604;-69
2021/03/18 12:14:59;;;;;;;5.37;3.90;;;5.80;99.90;;;;;;5027578;28;20226;-71
2021/03/18 12:17:25;;;;;;;6.27;4.67;;;5.80;99.90;;;;;;5024633;28;20244;-68
2021/03/18 12:19:50;;;;;;;6.80;5.13;;;5.90;99.90;;;;;;5023560;28;20189;-70
2021/03/18 12:22:16;;;;;;;7.43;4.47;;;6.00;99.90;;;;;;5022741;28;20218;-72
2021/03/18 12:24:42;;;;;;;6.57;4.47;;;5.70;99.90;;;;;;5023250;28;20978;-71
2021/03/18 12:27:07;;;;;;;5.80;4.13;;;5.50;99.90;;;;;;5033496;28;20186;-68
2021/03/18 12:29:33;;;;;;;7.87;5.90;;;5.70;99.90;;;;;;5029831;28;20270;-72
2021/03/18 12:31:59;;;;;;;6.03;4.40;;;5.60;99.90;;;;;;5022624;28;20179;-68
2021/03/18 12:34:24;;;;;;;4.57;3.33;;;5.40;99.90;;;;;;5022802;28;20206;-71
2021/03/18 12:36:50;;;;;;;6.63;4.63;;;5.20;99.90;;;;;;5028857;28;20186;-70
2021/03/18 12:39:16;;;;;;;6.50;4.10;;;5.20;99.90;;;;;;5027045;28;20269;-68
2021/03/18 12:41:42;;;;;;;5.80;3.93;;;5.30;99.90;;;;;;5025265;28;20217;-68
2021/03/18 12:44:07;;;;;;;7.07;4.37;;;5.50;99.90;;;;;;5039273;28;20199;-72
2021/03/18 12:46:34;;;;;;;5.43;4.27;;;5.50;99.90;;;;;;5023364;28;20274;-69
2021/03/18 12:48:59;;;;;;;4.27;3.73;;;5.40;99.90;;;;;;5024867;28;20723;-71
2021/03/18 12:51:25;;;;;;;6.60;4.27;;;5.50;99.90;;;;;;5023179;28;20215;-69
2021/03/18 12:53:53;;;;;;;5.23;3.97;;;5.60;99.90;;;;;;5025642;28;20697;-71
2021/03/18 12:56:19;;;;;;;4.63;3.90;;;5.70;99.90;;;;;;5027042;28;20725;-71
2021/03/18 12:58:44;;;;;;;4.93;4.00;;;5.50;99.90;;;;;;5026895;28;20692;-69
2021/03/18 13:01:11;;;;;;;6.53;4.83;;;5.60;99.90;;;;;;5029468;28;20223;-69
2021/03/18 13:03:37;;;;;;;5.70;3.70;;;5.50;99.90;;;;;;5026729;28;20214;-71